Airfield :
LOGIN :

Register | Disclaimer

   EN    FR    IT 

 










Legend :    VFR   Marginal VFR   IFR   Intensive IFR   Very Intensive IFR
Visi :
Ceiling :
>= 8 km
>= 3000ft
5 to 8 km
1000 to 3000 ft
1500m to 5 km
500 to 1000 ft
800 to 1500m
200 to 500 ft
< 800m
< 200 ft
Symbols :   Thunderstorms  Fog  Heavy snow  Heavy precipitations  Wind > 20 kt
SIGMETs :     Misc.  Thunderstorms  Icing  Turbulence  Mountain Waves  Volcanic Ashes







- Airport Elevation : 659 ft
- IATA code : LGG


EBLG - Liège

CURRENT METAR :
  • 242120Z 35005KT 9999 FEW028 BKN042 15/11 Q1023 NOSIG

EXPIRED METARs :
  • 242050Z 35005KT 320V020 9999 FEW028 BKN042 15/11 Q1023 NOSIG
  • 242020Z 34004KT 9999 FEW038 BKN042 15/11 Q1023 NOSIG
  • 241950Z 35007KT 9999 FEW038 BKN042 16/10 Q1023 NOSIG
  • 241920Z 35006KT 9999 FEW038 BKN042 16/10 Q1023 NOSIG
  • 241850Z 35006KT 320V020 9999 FEW038 BKN042 17/10 Q1023 NOSIG

TAF TAF EBLG
Valid from the 24 at 18:00 until the 26 at 00:00 UTC


241700Z 2418/2524 01006KT 9999 BKN045
BECMG 2422/2424 BKN014
PROB30
TEMPO 2500/2508 3500 BR BKN004
BECMG 2508/2510 BKN020
No reported NOTAMs for that airfield.



MET'MAP, your aeronautical weather chart ! - Copyright ORBIFLY December 2007 - Disclaimer

ORBIFLY MET'MAP TEAM :

Programming & Development : Alexandra Zaïnal
Concept & Development : Baudouin d'Aumeries
Co-Development & Prog : Marc-Olivier Méhu
Technical & hardware support : Manuel Goepfert

Contact : metmap@orbifly.com




SOURCES & CREDITS :

   NOAA